sensor_id;sensor_type;location;lat;lon;timestamp;pressure;altitude;pressure_sealevel;temperature;humidity
84232;BME280;74368;48.022;13.830;2024-03-02T00:02:00;95727.63;;;5.51;94.94
84232;BME280;74368;48.022;13.830;2024-03-02T00:04:26;95725.91;;;5.57;94.80
84232;BME280;74368;48.022;13.830;2024-03-02T00:06:52;95717.72;;;5.52;95.23
84232;BME280;74368;48.022;13.830;2024-03-02T00:09:19;95716.91;;;5.51;95.43
84232;BME280;74368;48.022;13.830;2024-03-02T00:11:45;95711.16;;;5.48;95.42
84232;BME280;74368;48.022;13.830;2024-03-02T00:14:10;95716.66;;;5.53;95.09
84232;BME280;74368;48.022;13.830;2024-03-02T00:16:36;95706.88;;;5.47;95.45
84232;BME280;74368;48.022;13.830;2024-03-02T00:19:03;95717.94;;;5.50;95.38
84232;BME280;74368;48.022;13.830;2024-03-02T00:21:30;95720.84;;;5.49;95.77
84232;BME280;74368;48.022;13.830;2024-03-02T00:23:57;95720.63;;;5.50;95.63
84232;BME280;74368;48.022;13.830;2024-03-02T00:26:22;95718.31;;;5.54;96.57
84232;BME280;74368;48.022;13.830;2024-03-02T00:28:48;95715.19;;;5.57;96.11
84232;BME280;74368;48.022;13.830;2024-03-02T00:31:15;95713.09;;;5.59;96.03
84232;BME280;74368;48.022;13.830;2024-03-02T00:33:45;95707.03;;;5.52;96.04
84232;BME280;74368;48.022;13.830;2024-03-02T00:36:15;95715.19;;;5.57;95.35
84232;BME280;74368;48.022;13.830;2024-03-02T00:38:46;95712.53;;;5.57;95.78
84232;BME280;74368;48.022;13.830;2024-03-02T00:41:25;95730.81;;;5.60;95.53
84232;BME280;74368;48.022;13.830;2024-03-02T00:46:23;95708.06;;;5.51;95.54
84232;BME280;74368;48.022;13.830;2024-03-02T00:48:55;95725.44;;;5.60;96.33
84232;BME280;74368;48.022;13.830;2024-03-02T00:51:24;95719.06;;;5.61;95.86
84232;BME280;74368;48.022;13.830;2024-03-02T00:53:51;95733.03;;;5.63;95.93
84232;BME280;74368;48.022;13.830;2024-03-02T00:56:17;95718.47;;;5.59;95.15
84232;BME280;74368;48.022;13.830;2024-03-02T00:58:43;95722.75;;;5.60;95.17
84232;BME280;74368;48.022;13.830;2024-03-02T01:01:08;95712.28;;;5.58;94.76
84232;BME280;74368;48.022;13.830;2024-03-02T01:03:35;95722.09;;;5.64;94.57
84232;BME280;74368;48.022;13.830;2024-03-02T01:06:00;95726.19;;;5.67;94.65
84232;BME280;74368;48.022;13.830;2024-03-02T01:08:51;95709.31;;;5.66;94.87
84232;BME280;74368;48.022;13.830;2024-03-02T01:11:17;95715.84;;;5.70;95.46
84232;BME280;74368;48.022;13.830;2024-03-02T01:13:43;95708.38;;;5.72;94.84
84232;BME280;74368;48.022;13.830;2024-03-02T01:16:08;95709.78;;;5.75;95.45
84232;BME280;74368;48.022;13.830;2024-03-02T01:18:34;95701.84;;;5.68;95.19
84232;BME280;74368;48.022;13.830;2024-03-02T01:20:59;95712.31;;;5.70;95.42
84232;BME280;74368;48.022;13.830;2024-03-02T01:23:24;95704.91;;;5.72;95.75
84232;BME280;74368;48.022;13.830;2024-03-02T01:25:51;95711.06;;;5.72;95.73
84232;BME280;74368;48.022;13.830;2024-03-02T01:28:17;95698.59;;;5.66;95.52
84232;BME280;74368;48.022;13.830;2024-03-02T01:30:42;95709.59;;;5.76;95.60
84232;BME280;74368;48.022;13.830;2024-03-02T01:33:07;95699.56;;;5.72;95.90
84232;BME280;74368;48.022;13.830;2024-03-02T01:35:33;95702.00;;;5.73;95.46
84232;BME280;74368;48.022;13.830;2024-03-02T01:38:00;95712.84;;;5.78;95.95
84232;BME280;74368;48.022;13.830;2024-03-02T01:40:25;95695.81;;;5.73;95.63
84232;BME280;74368;48.022;13.830;2024-03-02T01:42:52;95703.97;;;5.78;94.76
84232;BME280;74368;48.022;13.830;2024-03-02T01:45:18;95705.00;;;5.77;94.86
84232;BME280;74368;48.022;13.830;2024-03-02T01:47:43;95710.84;;;5.74;94.21
84232;BME280;74368;48.022;13.830;2024-03-02T01:50:11;95705.50;;;5.74;94.58
84232;BME280;74368;48.022;13.830;2024-03-02T01:52:36;95707.44;;;5.67;94.44
84232;BME280;74368;48.022;13.830;2024-03-02T01:55:02;95712.72;;;5.73;94.32
84232;BME280;74368;48.022;13.830;2024-03-02T01:57:27;95704.66;;;5.73;94.76
84232;BME280;74368;48.022;13.830;2024-03-02T01:59:53;95699.31;;;5.73;94.80
84232;BME280;74368;48.022;13.830;2024-03-02T02:02:18;95705.13;;;5.70;94.95
84232;BME280;74368;48.022;13.830;2024-03-02T02:04:45;95696.13;;;5.65;94.85
84232;BME280;74368;48.022;13.830;2024-03-02T02:07:10;95702.69;;;5.69;95.28
84232;BME280;74368;48.022;13.830;2024-03-02T02:09:36;95701.59;;;5.70;95.65
84232;BME280;74368;48.022;13.830;2024-03-02T02:12:02;95695.22;;;5.71;95.41
84232;BME280;74368;48.022;13.830;2024-03-02T02:14:28;95689.97;;;5.64;95.62
84232;BME280;74368;48.022;13.830;2024-03-02T02:16:54;95694.63;;;5.69;95.41
84232;BME280;74368;48.022;13.830;2024-03-02T02:19:19;95694.41;;;5.70;96.06
84232;BME280;74368;48.022;13.830;2024-03-02T02:21:44;95692.78;;;5.69;95.97
84232;BME280;74368;48.022;13.830;2024-03-02T02:24:10;95687.50;;;5.63;95.87
84232;BME280;74368;48.022;13.830;2024-03-02T02:26:35;95694.06;;;5.67;96.19
84232;BME280;74368;48.022;13.830;2024-03-02T02:29:01;95682.13;;;5.63;96.26
84232;BME280;74368;48.022;13.830;2024-03-02T02:31:26;95679.44;;;5.63;96.14
84232;BME280;74368;48.022;13.830;2024-03-02T02:33:51;95682.81;;;5.58;96.43
84232;BME280;74368;48.022;13.830;2024-03-02T02:36:17;95674.91;;;5.63;96.17
84232;BME280;74368;48.022;13.830;2024-03-02T02:38:44;95673.97;;;5.58;96.03
84232;BME280;74368;48.022;13.830;2024-03-02T02:41:11;95686.91;;;5.61;95.70
84232;BME280;74368;48.022;13.830;2024-03-02T02:43:37;95667.06;;;5.50;96.25
84232;BME280;74368;48.022;13.830;2024-03-02T02:46:05;95676.16;;;5.49;96.45
84232;BME280;74368;48.022;13.830;2024-03-02T02:48:55;95664.75;;;5.54;96.19
84232;BME280;74368;48.022;13.830;2024-03-02T02:52:11;95678.53;;;5.57;96.38
84232;BME280;74368;48.022;13.830;2024-03-02T02:54:37;95670.78;;;5.49;96.22
84232;BME280;74368;48.022;13.830;2024-03-02T02:57:03;95676.16;;;5.49;96.38
84232;BME280;74368;48.022;13.830;2024-03-02T02:59:28;95672.19;;;5.52;96.44
84232;BME280;74368;48.022;13.830;2024-03-02T03:01:53;95670.78;;;5.49;96.55
84232;BME280;74368;48.022;13.830;2024-03-02T03:04:19;95669.97;;;5.49;96.82
84232;BME280;74368;48.022;13.830;2024-03-02T03:10:26;95674.94;;;5.45;97.13
84232;BME280;74368;48.022;13.830;2024-03-02T03:12:52;95669.13;;;5.48;96.97
84232;BME280;74368;48.022;13.830;2024-03-02T03:15:18;95658.97;;;5.39;96.63
84232;BME280;74368;48.022;13.830;2024-03-02T03:17:43;95671.47;;;5.45;96.87
84232;BME280;74368;48.022;13.830;2024-03-02T03:20:09;95670.69;;;5.56;96.83
84232;BME280;74368;48.022;13.830;2024-03-02T03:22:35;95671.47;;;5.45;96.59
84232;BME280;74368;48.022;13.830;2024-03-02T03:25:01;95663.88;;;5.42;97.03
84232;BME280;74368;48.022;13.830;2024-03-02T03:27:27;95669.69;;;5.39;97.56
84232;BME280;74368;48.022;13.830;2024-03-02T03:29:52;95652.44;;;5.34;97.19
84232;BME280;74368;48.022;13.830;2024-03-02T03:32:17;95651.25;;;5.30;97.47
84232;BME280;74368;48.022;13.830;2024-03-02T03:34:42;95666.41;;;5.37;97.69
84232;BME280;74368;48.022;13.830;2024-03-02T03:37:08;95646.94;;;5.29;97.32
84232;BME280;74368;48.022;13.830;2024-03-02T03:39:34;95662.09;;;5.35;97.71
84232;BME280;74368;48.022;13.830;2024-03-02T03:42:00;95652.88;;;5.31;97.74
84232;BME280;74368;48.022;13.830;2024-03-02T03:44:25;95662.31;;;5.34;97.24
84232;BME280;74368;48.022;13.830;2024-03-02T03:46:51;95657.88;;;5.28;97.81
84232;BME280;74368;48.022;13.830;2024-03-02T03:49:16;95641.69;;;5.23;98.00
84232;BME280;74368;48.022;13.830;2024-03-02T03:51:42;95654.06;;;5.35;97.97
84232;BME280;74368;48.022;13.830;2024-03-02T03:54:07;95642.19;;;5.31;97.58
84232;BME280;74368;48.022;13.830;2024-03-02T03:56:33;95654.44;;;5.39;97.60
84232;BME280;74368;48.022;13.830;2024-03-02T03:58:58;95652.66;;;5.33;97.90
84232;BME280;74368;48.022;13.830;2024-03-02T04:01:24;95656.75;;;5.35;97.85
84232;BME280;74368;48.022;13.830;2024-03-02T04:03:50;95653.03;;;5.37;97.67
84232;BME280;74368;48.022;13.830;2024-03-02T04:06:15;95663.16;;;5.34;98.18
84232;BME280;74368;48.022;13.830;2024-03-02T04:08:42;95662.56;;;5.32;97.97
84232;BME280;74368;48.022;13.830;2024-03-02T04:11:08;95652.97;;;5.25;98.33
84232;BME280;74368;48.022;13.830;2024-03-02T04:13:33;95663.97;;;5.35;97.98
84232;BME280;74368;48.022;13.830;2024-03-02T04:15:59;95656.28;;;5.39;98.08
84232;BME280;74368;48.022;13.830;2024-03-02T04:18:24;95648.13;;;5.33;97.85
84232;BME280;74368;48.022;13.830;2024-03-02T04:20:49;95644.03;;;5.31;97.70
84232;BME280;74368;48.022;13.830;2024-03-02T04:23:15;95656.16;;;5.33;97.29
84232;BME280;74368;48.022;13.830;2024-03-02T04:25:40;95642.03;;;5.26;97.83
84232;BME280;74368;48.022;13.830;2024-03-02T04:28:06;95645.63;;;5.20;97.66
84232;BME280;74368;48.022;13.830;2024-03-02T04:30:31;95655.66;;;5.25;98.33
84232;BME280;74368;48.022;13.830;2024-03-02T04:32:56;95651.91;;;5.26;98.49
84232;BME280;74368;48.022;13.830;2024-03-02T04:35:22;95639.44;;;5.20;97.90
84232;BME280;74368;48.022;13.830;2024-03-02T04:37:47;95654.91;;;5.18;98.27
84232;BME280;74368;48.022;13.830;2024-03-02T04:40:12;95644.91;;;5.13;98.45
84232;BME280;74368;48.022;13.830;2024-03-02T04:42:38;95658.09;;;5.26;98.34
84232;BME280;74368;48.022;13.830;2024-03-02T04:45:03;95650.38;;;5.18;98.04
84232;BME280;74368;48.022;13.830;2024-03-02T04:47:29;95647.91;;;5.17;98.02
84232;BME280;74368;48.022;13.830;2024-03-02T04:49:54;95649.19;;;5.14;98.19
84232;BME280;74368;48.022;13.830;2024-03-02T04:52:19;95646.16;;;5.11;98.87
84232;BME280;74368;48.022;13.830;2024-03-02T04:54:45;95653.50;;;5.15;98.50
84232;BME280;74368;48.022;13.830;2024-03-02T04:57:28;95641.59;;;5.11;98.58
84232;BME280;74368;48.022;13.830;2024-03-02T04:59:54;95650.69;;;5.10;98.61
84232;BME280;74368;48.022;13.830;2024-03-02T05:02:19;95639.53;;;5.13;98.60
84232;BME280;74368;48.022;13.830;2024-03-02T05:04:44;95640.72;;;5.17;97.75
84232;BME280;74368;48.022;13.830;2024-03-02T05:07:10;95642.41;;;5.12;97.98
84232;BME280;74368;48.022;13.830;2024-03-02T05:09:35;95653.03;;;5.18;97.79
84232;BME280;74368;48.022;13.830;2024-03-02T05:12:01;95653.66;;;5.20;97.53
84232;BME280;74368;48.022;13.830;2024-03-02T05:14:45;95647.91;;;5.17;97.68
84232;BME280;74368;48.022;13.830;2024-03-02T05:17:11;95651.28;;;5.12;97.78
84232;BME280;74368;48.022;13.830;2024-03-02T05:19:36;95640.66;;;5.06;97.95
84232;BME280;74368;48.022;13.830;2024-03-02T05:22:02;95640.56;;;4.94;97.76
84232;BME280;74368;48.022;13.830;2024-03-02T05:24:28;95655.59;;;4.95;98.44
84232;BME280;74368;48.022;13.830;2024-03-02T05:26:53;95650.53;;;4.87;98.16
84232;BME280;74368;48.022;13.830;2024-03-02T05:29:19;95658.19;;;4.84;98.34
84232;BME280;74368;48.022;13.830;2024-03-02T05:31:44;95665.72;;;4.93;98.11
84232;BME280;74368;48.022;13.830;2024-03-02T05:34:09;95656.03;;;4.92;98.43
84232;BME280;74368;48.022;13.830;2024-03-02T05:36:35;95657.75;;;4.87;97.42
84232;BME280;74368;48.022;13.830;2024-03-02T05:39:00;95657.38;;;4.83;97.72
84232;BME280;74368;48.022;13.830;2024-03-02T05:41:26;95671.94;;;4.87;98.06
84232;BME280;74368;48.022;13.830;2024-03-02T05:43:51;95657.81;;;4.80;98.14
84232;BME280;74368;48.022;13.830;2024-03-02T05:46:17;95665.41;;;4.83;98.81
84232;BME280;74368;48.022;13.830;2024-03-02T05:48:42;95662.28;;;4.86;98.65
84232;BME280;74368;48.022;13.830;2024-03-02T05:51:07;95648.97;;;4.80;98.92
84232;BME280;74368;48.022;13.830;2024-03-02T05:53:33;95667.19;;;4.89;98.21
84232;BME280;74368;48.022;13.830;2024-03-02T05:55:58;95655.53;;;4.84;98.35
84232;BME280;74368;48.022;13.830;2024-03-02T05:58:24;95680.13;;;4.92;98.83
84232;BME280;74368;48.022;13.830;2024-03-02T06:00:49;95669.22;;;4.94;98.79
84232;BME280;74368;48.022;13.830;2024-03-02T06:03:14;95674.31;;;4.95;98.71
84232;BME280;74368;48.022;13.830;2024-03-02T06:05:40;95679.97;;;5.05;98.69
84232;BME280;74368;48.022;13.830;2024-03-02T06:08:06;95671.38;;;5.03;98.60
84232;BME280;74368;48.022;13.830;2024-03-02T06:10:32;95672.53;;;5.07;98.80
84232;BME280;74368;48.022;13.830;2024-03-02T06:12:57;95674.97;;;5.09;98.58
84232;BME280;74368;48.022;13.830;2024-03-02T06:15:24;95682.97;;;5.15;99.13
84232;BME280;74368;48.022;13.830;2024-03-02T06:17:49;95682.97;;;5.15;98.43
84232;BME280;74368;48.022;13.830;2024-03-02T06:20:15;95684.53;;;5.23;98.84
84232;BME280;74368;48.022;13.830;2024-03-02T06:22:40;95675.75;;;5.16;98.19
84232;BME280;74368;48.022;13.830;2024-03-02T06:25:05;95702.59;;;5.27;98.64
84232;BME280;74368;48.022;13.830;2024-03-02T06:27:31;95701.91;;;5.32;98.56
84232;BME280;74368;48.022;13.830;2024-03-02T06:29:56;95693.72;;;5.27;98.31
84232;BME280;74368;48.022;13.830;2024-03-02T06:32:21;95708.22;;;5.38;98.35
84232;BME280;74368;48.022;13.830;2024-03-02T06:34:48;95714.31;;;5.45;98.09
84232;BME280;74368;48.022;13.830;2024-03-02T06:37:13;95703.66;;;5.38;97.90
84232;BME280;74368;48.022;13.830;2024-03-02T06:39:38;95719.44;;;5.46;97.58
84232;BME280;74368;48.022;13.830;2024-03-02T06:42:04;95703.91;;;5.37;97.35
84232;BME280;74368;48.022;13.830;2024-03-02T06:44:29;95699.00;;;5.33;97.20
84232;BME280;74368;48.022;13.830;2024-03-02T06:46:54;95723.09;;;5.52;96.97
84232;BME280;74368;48.022;13.830;2024-03-02T06:49:20;95706.72;;;5.42;96.91
84232;BME280;74368;48.022;13.830;2024-03-02T06:51:45;95729.03;;;5.54;96.44
84232;BME280;74368;48.022;13.830;2024-03-02T06:54:11;95718.84;;;5.44;96.69
84232;BME280;74368;48.022;13.830;2024-03-02T06:56:36;95730.16;;;5.46;96.94
84232;BME280;74368;48.022;13.830;2024-03-02T06:59:03;95726.06;;;5.44;96.93
84232;BME280;74368;48.022;13.830;2024-03-02T07:01:29;95741.59;;;5.53;96.90
84232;BME280;74368;48.022;13.830;2024-03-02T07:03:54;95752.13;;;5.55;97.04
84232;BME280;74368;48.022;13.830;2024-03-02T07:06:22;95755.22;;;5.52;97.21
84232;BME280;74368;48.022;13.830;2024-03-02T07:08:47;95754.31;;;5.58;97.06
84232;BME280;74368;48.022;13.830;2024-03-02T07:11:12;95754.78;;;5.55;96.78
84232;BME280;74368;48.022;13.830;2024-03-02T07:14:03;95763.03;;;5.53;96.47
84232;BME280;74368;48.022;13.830;2024-03-02T07:16:28;95747.19;;;5.52;96.73
84232;BME280;74368;48.022;13.830;2024-03-02T07:18:55;95754.78;;;5.55;96.79
84232;BME280;74368;48.022;13.830;2024-03-02T07:21:22;95753.13;;;5.54;96.80
84232;BME280;74368;48.022;13.830;2024-03-02T07:23:48;95764.75;;;5.66;96.06
84232;BME280;74368;48.022;13.830;2024-03-02T07:26:14;95766.53;;;5.72;96.05
84232;BME280;74368;48.022;13.830;2024-03-02T07:28:40;95769.72;;;5.80;95.46
84232;BME280;74368;48.022;13.830;2024-03-02T07:31:06;95777.47;;;5.88;96.30
84232;BME280;74368;48.022;13.830;2024-03-02T07:33:32;95781.34;;;5.92;95.48
84232;BME280;74368;48.022;13.830;2024-03-02T07:35:59;95764.59;;;5.79;95.14
84232;BME280;74368;48.022;13.830;2024-03-02T07:38:26;95774.63;;;5.83;95.76
84232;BME280;74368;48.022;13.830;2024-03-02T07:40:52;95781.19;;;5.87;95.88
84232;BME280;74368;48.022;13.830;2024-03-02T07:43:18;95781.56;;;5.91;96.01
84232;BME280;74368;48.022;13.830;2024-03-02T07:45:44;95787.41;;;5.99;95.68
84232;BME280;74368;48.022;13.830;2024-03-02T07:48:11;95802.13;;;6.09;95.39
84232;BME280;74368;48.022;13.830;2024-03-02T07:50:36;95779.75;;;6.03;94.99
84232;BME280;74368;48.022;13.830;2024-03-02T07:53:02;95797.28;;;6.17;94.21
84232;BME280;74368;48.022;13.830;2024-03-02T07:55:29;95803.25;;;6.19;94.06
84232;BME280;74368;48.022;13.830;2024-03-02T07:57:54;95808.28;;;6.27;94.08
84232;BME280;74368;48.022;13.830;2024-03-02T08:00:20;95803.00;;;6.21;93.92
84232;BME280;74368;48.022;13.830;2024-03-02T08:02:45;95810.16;;;6.27;94.24
84232;BME280;74368;48.022;13.830;2024-03-02T08:05:11;95803.97;;;6.26;93.63
84232;BME280;74368;48.022;13.830;2024-03-02T08:07:37;95803.88;;;6.33;93.77
84232;BME280;74368;48.022;13.830;2024-03-02T08:10:02;95798.44;;;6.39;93.60
84232;BME280;74368;48.022;13.830;2024-03-02T08:16:08;95813.13;;;6.48;92.42
84232;BME280;74368;48.022;13.830;2024-03-02T08:18:34;95826.81;;;6.58;92.55
84232;BME280;74368;48.022;13.830;2024-03-02T08:21:00;95815.41;;;6.63;91.63
84232;BME280;74368;48.022;13.830;2024-03-02T08:23:25;95806.66;;;6.68;91.94
84232;BME280;74368;48.022;13.830;2024-03-02T08:25:50;95801.16;;;6.62;90.43
84232;BME280;74368;48.022;13.830;2024-03-02T08:28:16;95806.91;;;6.66;90.86
84232;BME280;74368;48.022;13.830;2024-03-02T08:30:42;95805.63;;;6.69;90.97
84232;BME280;74368;48.022;13.830;2024-03-02T08:33:07;95800.59;;;6.72;91.23
84232;BME280;74368;48.022;13.830;2024-03-02T08:35:33;95808.66;;;6.72;91.01
84232;BME280;74368;48.022;13.830;2024-03-02T08:38:02;95804.34;;;6.83;90.35
84232;BME280;74368;48.022;13.830;2024-03-02T08:40:28;95806.72;;;6.91;89.96
84232;BME280;74368;48.022;13.830;2024-03-02T08:42:53;95804.47;;;7.11;89.07
84232;BME280;74368;48.022;13.830;2024-03-02T08:45:19;95798.31;;;7.22;86.97
84232;BME280;74368;48.022;13.830;2024-03-02T08:47:45;95809.41;;;7.37;85.87
84232;BME280;74368;48.022;13.830;2024-03-02T08:50:11;95807.75;;;7.48;85.93
84232;BME280;74368;48.022;13.830;2024-03-02T08:52:36;95800.75;;;7.58;85.47
84232;BME280;74368;48.022;13.830;2024-03-02T08:55:02;95803.75;;;7.73;84.84
84232;BME280;74368;48.022;13.830;2024-03-02T08:57:27;95806.28;;;7.91;85.03
84232;BME280;74368;48.022;13.830;2024-03-02T08:59:53;95809.38;;;8.12;84.03
84232;BME280;74368;48.022;13.830;2024-03-02T09:02:18;95801.66;;;8.15;81.83
84232;BME280;74368;48.022;13.830;2024-03-02T09:04:44;95808.28;;;8.24;81.24
84232;BME280;74368;48.022;13.830;2024-03-02T09:07:09;95800.03;;;8.42;82.00
84232;BME280;74368;48.022;13.830;2024-03-02T09:09:34;95803.75;;;8.70;79.61
84232;BME280;74368;48.022;13.830;2024-03-02T09:12:00;95808.50;;;8.79;79.16
84232;BME280;74368;48.022;13.830;2024-03-02T09:14:25;95809.75;;;8.88;79.30
84232;BME280;74368;48.022;13.830;2024-03-02T09:16:50;95801.59;;;9.00;78.93
84232;BME280;74368;48.022;13.830;2024-03-02T09:19:16;95815.88;;;9.34;77.80
84232;BME280;74368;48.022;13.830;2024-03-02T09:21:42;95808.66;;;9.56;75.06
84232;BME280;74368;48.022;13.830;2024-03-02T09:24:08;95802.88;;;9.69;74.37
84232;BME280;74368;48.022;13.830;2024-03-02T09:26:35;95799.91;;;9.87;74.09
84232;BME280;74368;48.022;13.830;2024-03-02T09:29:01;95801.59;;;9.93;74.20
84232;BME280;74368;48.022;13.830;2024-03-02T09:31:26;95819.22;;;10.39;71.22
84232;BME280;74368;48.022;13.830;2024-03-02T09:33:52;95808.03;;;10.57;70.39
84232;BME280;74368;48.022;13.830;2024-03-02T09:36:21;95791.41;;;9.78;70.85
84232;BME280;74368;48.022;13.830;2024-03-02T09:38:49;95802.16;;;10.12;70.17
84232;BME280;74368;48.022;13.830;2024-03-02T09:41:14;95807.16;;;10.25;71.32
84232;BME280;74368;48.022;13.830;2024-03-02T09:43:40;95811.97;;;10.23;70.43
84232;BME280;74368;48.022;13.830;2024-03-02T09:46:10;95809.28;;;10.23;69.76
84232;BME280;74368;48.022;13.830;2024-03-02T09:48:35;95808.38;;;10.12;69.86
84232;BME280;74368;48.022;13.830;2024-03-02T09:51:01;95802.00;;;10.02;70.89
84232;BME280;74368;48.022;13.830;2024-03-02T09:53:31;95819.00;;;10.02;71.12
84232;BME280;74368;48.022;13.830;2024-03-02T09:55:57;95796.81;;;9.78;71.05
84232;BME280;74368;48.022;13.830;2024-03-02T09:58:22;95807.16;;;10.25;69.90
84232;BME280;74368;48.022;13.830;2024-03-02T10:00:48;95792.59;;;10.79;68.58
84232;BME280;74368;48.022;13.830;2024-03-02T10:03:14;95800.47;;;11.91;63.71
84232;BME280;74368;48.022;13.830;2024-03-02T10:05:40;95797.88;;;13.49;57.25
84232;BME280;74368;48.022;13.830;2024-03-02T10:08:05;95781.41;;;15.17;52.68
84232;BME280;74368;48.022;13.830;2024-03-02T10:10:49;95774.13;;;16.70;48.66
84232;BME280;74368;48.022;13.830;2024-03-02T10:13:15;95773.19;;;17.49;44.93
84232;BME280;74368;48.022;13.830;2024-03-02T10:15:41;95771.75;;;18.57;44.07
84232;BME280;74368;48.022;13.830;2024-03-02T10:18:11;95772.78;;;18.96;42.74
84232;BME280;74368;48.022;13.830;2024-03-02T10:20:37;95776.72;;;19.62;40.53
84232;BME280;74368;48.022;13.830;2024-03-02T10:23:15;95773.53;;;17.93;43.82
84232;BME280;74368;48.022;13.830;2024-03-02T10:25:43;95770.59;;;17.06;46.27
84232;BME280;74368;48.022;13.830;2024-03-02T10:28:08;95775.31;;;17.84;44.03
84232;BME280;74368;48.022;13.830;2024-03-02T10:30:34;95771.88;;;18.52;40.66
84232;BME280;74368;48.022;13.830;2024-03-02T10:33:03;95757.16;;;18.48;40.96
84232;BME280;74368;48.022;13.830;2024-03-02T10:35:31;95763.22;;;18.31;40.38
84232;BME280;74368;48.022;13.830;2024-03-02T10:37:59;95743.44;;;18.75;41.50
84232;BME280;74368;48.022;13.830;2024-03-02T10:40:26;95743.53;;;19.63;39.10
84232;BME280;74368;48.022;13.830;2024-03-02T10:42:52;95751.72;;;20.64;36.20
84232;BME280;74368;48.022;13.830;2024-03-02T10:45:20;95745.47;;;19.41;38.67
84232;BME280;74368;48.022;13.830;2024-03-02T10:47:47;95754.41;;;20.08;37.76
84232;BME280;74368;48.022;13.830;2024-03-02T10:50:12;95751.56;;;20.61;37.44
84232;BME280;74368;48.022;13.830;2024-03-02T10:52:38;95738.00;;;20.56;38.01
84232;BME280;74368;48.022;13.830;2024-03-02T10:55:09;95738.63;;;18.94;39.82
84232;BME280;74368;48.022;13.830;2024-03-02T10:57:54;95730.22;;;18.00;40.60
84232;BME280;74368;48.022;13.830;2024-03-02T11:00:24;95728.28;;;18.55;41.33
84232;BME280;74368;48.022;13.830;2024-03-02T11:03:02;95718.09;;;18.69;40.35
84232;BME280;74368;48.022;13.830;2024-03-02T11:05:33;95714.59;;;18.41;40.84
84232;BME280;74368;48.022;13.830;2024-03-02T11:08:06;95712.00;;;18.09;40.69
84232;BME280;74368;48.022;13.830;2024-03-02T11:10:49;95712.63;;;18.69;39.79
84232;BME280;74368;48.022;13.830;2024-03-02T11:13:22;95695.31;;;18.74;40.99
84232;BME280;74368;48.022;13.830;2024-03-02T11:15:52;95708.84;;;18.57;41.29
84232;BME280;74368;48.022;13.830;2024-03-02T11:18:21;95698.50;;;18.26;41.07
84232;BME280;74368;48.022;13.830;2024-03-02T11:20:47;95699.44;;;18.08;42.92
84232;BME280;74368;48.022;13.830;2024-03-02T11:23:12;95675.47;;;18.05;44.42
84232;BME280;74368;48.022;13.830;2024-03-02T11:25:41;95682.50;;;17.52;43.91
84232;BME280;74368;48.022;13.830;2024-03-02T11:28:07;95678.94;;;17.51;44.03
84232;BME280;74368;48.022;13.830;2024-03-02T11:33:08;95682.84;;;16.25;48.36
84232;BME280;74368;48.022;13.830;2024-03-02T11:35:37;95673.84;;;15.01;50.87
84232;BME280;74368;48.022;13.830;2024-03-02T11:38:03;95676.25;;;14.74;52.87
84232;BME280;74368;48.022;13.830;2024-03-02T11:40:29;95653.03;;;14.52;52.78
84232;BME280;74368;48.022;13.830;2024-03-02T11:42:56;95681.69;;;15.31;52.07
84232;BME280;74368;48.022;13.830;2024-03-02T11:45:25;95670.59;;;15.28;51.84
84232;BME280;74368;48.022;13.830;2024-03-02T11:47:53;95672.03;;;15.20;51.88
84232;BME280;74368;48.022;13.830;2024-03-02T11:50:36;95663.34;;;14.89;52.00
84232;BME280;74368;48.022;13.830;2024-03-02T11:53:09;95667.66;;;14.90;52.40
84232;BME280;74368;48.022;13.830;2024-03-02T11:55:36;95666.41;;;15.40;51.44
84232;BME280;74368;48.022;13.830;2024-03-02T11:58:04;95668.28;;;15.68;49.49
84232;BME280;74368;48.022;13.830;2024-03-02T12:00:30;95658.19;;;14.49;54.05
84232;BME280;74368;48.022;13.830;2024-03-02T12:03:06;95644.00;;;14.13;54.95
84232;BME280;74368;48.022;13.830;2024-03-02T12:05:32;95652.94;;;13.65;56.44
84232;BME280;74368;48.022;13.830;2024-03-02T12:07:59;95659.50;;;13.49;56.85
84232;BME280;74368;48.022;13.830;2024-03-02T12:10:28;95658.50;;;13.94;57.82
84232;BME280;74368;48.022;13.830;2024-03-02T12:12:57;95649.09;;;13.76;56.72
84232;BME280;74368;48.022;13.830;2024-03-02T12:15:42;95642.09;;;13.60;56.24
84232;BME280;74368;48.022;13.830;2024-03-02T12:18:08;95656.47;;;14.14;57.39
84232;BME280;74368;48.022;13.830;2024-03-02T12:20:38;95650.16;;;14.68;54.71
84232;BME280;74368;48.022;13.830;2024-03-02T12:23:05;95647.03;;;14.89;52.95
84232;BME280;74368;48.022;13.830;2024-03-02T12:25:32;95636.00;;;15.04;52.17
84232;BME280;74368;48.022;13.830;2024-03-02T12:28:00;95641.22;;;15.01;53.57
84232;BME280;74368;48.022;13.830;2024-03-02T12:30:29;95638.41;;;15.11;51.80
84232;BME280;74368;48.022;13.830;2024-03-02T12:32:54;95628.31;;;14.83;51.99
84232;BME280;74368;48.022;13.830;2024-03-02T12:35:20;95629.84;;;14.94;52.53
84232;BME280;74368;48.022;13.830;2024-03-02T12:37:50;95627.13;;;14.94;53.14
84232;BME280;74368;48.022;13.830;2024-03-02T12:40:17;95632.31;;;15.48;50.81
84232;BME280;74368;48.022;13.830;2024-03-02T12:42:46;95618.22;;;16.07;50.55
84232;BME280;74368;48.022;13.830;2024-03-02T12:45:16;95620.75;;;16.03;48.44
84232;BME280;74368;48.022;13.830;2024-03-02T12:47:42;95613.72;;;15.97;49.68
84232;BME280;74368;48.022;13.830;2024-03-02T12:50:08;95614.69;;;16.06;50.43
84232;BME280;74368;48.022;13.830;2024-03-02T12:52:34;95607.94;;;16.22;50.15
84232;BME280;74368;48.022;13.830;2024-03-02T12:55:00;95613.47;;;15.75;48.98
84232;BME280;74368;48.022;13.830;2024-03-02T12:57:28;95603.72;;;15.93;48.94
84232;BME280;74368;48.022;13.830;2024-03-02T13:00:04;95614.72;;;15.82;49.72
84232;BME280;74368;48.022;13.830;2024-03-02T13:02:41;95609.22;;;15.88;48.97
84232;BME280;74368;48.022;13.830;2024-03-02T13:05:07;95600.13;;;16.16;48.86
84232;BME280;74368;48.022;13.830;2024-03-02T13:07:36;95605.28;;;16.55;49.42
84232;BME280;74368;48.022;13.830;2024-03-02T13:10:02;95603.66;;;16.35;49.24